Time;durP1;ratioP1;P1;durP2;ratioP2;P2;SDS_P1;SDS_P2;PMS_P1;PMS_P2;Temp;Humidity;BMP_temperature;BMP_pressure;BME280_temperature;BME280_humidity;BME280_pressure;Samples;Min_cycle;Max_cycle;Signal;HPM_P1;HPM_P2
2021/11/23 00:02:16;;;;;;;3.17;1.42;;;;;;;18.60;67.59;101516.41;5078137;28;20048;-68
2021/11/23 00:04:46;;;;;;;4.65;2.17;;;;;;;18.65;67.45;101511.03;5074364;28;20054;-68
2021/11/23 00:07:14;;;;;;;5.07;2.63;;;;;;;18.64;67.47;101504.78;5074053;28;20511;-68
2021/11/23 00:09:43;;;;;;;3.97;1.55;;;;;;;18.67;67.56;101503.91;5074255;28;20484;-68
2021/11/23 00:12:11;;;;;;;2.97;1.48;;;;;;;18.66;67.72;101510.13;5089923;28;20032;-67
2021/11/23 00:14:59;;;;;;;4.53;1.70;;;;;;;18.65;68.07;101519.06;5072654;28;20476;-68
2021/11/23 00:17:27;;;;;;;6.13;1.95;;;;;;;18.64;68.44;101512.81;5073663;28;20446;-68
2021/11/23 00:19:54;;;;;;;5.05;1.50;;;;;;;18.61;68.74;101520.88;5074108;28;20498;-68
2021/11/23 00:22:22;;;;;;;8.00;2.00;;;;;;;18.61;69.20;101528.91;5074359;28;20048;-67
2021/11/23 00:25:05;;;;;;;5.35;1.85;;;;;;;18.61;69.32;101522.66;5073524;28;20048;-68
2021/11/23 00:27:34;;;;;;;3.28;2.10;;;;;;;18.60;69.59;101520.88;5074150;28;20127;-68
2021/11/23 00:30:02;;;;;;;3.17;1.60;;;;;;;18.64;69.77;101517.31;5072914;28;20414;-68
2021/11/23 00:32:30;;;;;;;8.02;2.05;;;;;;;18.65;69.73;101513.72;5073318;28;20044;-67
2021/11/23 00:35:04;;;;;;;2.92;1.83;;;;;;;18.65;70.10;101508.34;5073882;28;20542;-67
2021/11/23 00:37:33;;;;;;;3.20;1.92;;;;;;;18.66;70.35;101507.47;5073719;28;20040;-68
2021/11/23 00:40:01;;;;;;;4.88;2.53;;;;;;;18.67;70.65;101511.94;5079046;28;20037;-69
2021/11/23 00:42:30;;;;;;;10.45;1.83;;;;;;;18.67;71.39;101507.47;5074272;28;20098;-68
2021/11/23 00:44:58;;;;;;;6.32;1.98;;;;;;;18.66;71.68;101504.78;5073914;28;20056;-68
2021/11/23 00:47:25;;;;;;;5.82;2.70;;;;;;;18.67;71.94;101499.44;5073775;28;20404;-67
2021/11/23 00:49:53;;;;;;;6.35;2.80;;;;;;;18.69;71.85;101496.75;5089447;28;20078;-68
2021/11/23 00:52:21;;;;;;;6.68;2.65;;;;;;;18.69;71.90;101492.31;5089283;28;20055;-67
2021/11/23 00:54:51;;;;;;;5.53;2.78;;;;;;;18.71;71.92;101482.47;5073812;28;20055;-68
2021/11/23 00:57:18;;;;;;;5.13;1.83;;;;;;;18.74;71.77;101494.94;5073679;28;20048;-67
2021/11/23 00:59:48;;;;;;;6.45;2.47;;;;;;;18.78;71.59;101498.47;5089011;28;20060;-68
2021/11/23 01:02:15;;;;;;;3.20;1.98;;;;;;;18.84;71.26;101501.16;5089022;28;20047;-67
2021/11/23 01:04:43;;;;;;;7.32;2.13;;;;;;;18.90;71.12;101493.97;5072263;28;20041;-68
2021/11/23 01:07:11;;;;;;;5.38;2.13;;;;;;;18.91;70.97;101493.03;5088802;28;20040;-67
2021/11/23 01:09:38;;;;;;;8.60;2.83;;;;;;;18.93;70.82;101493.91;5073279;28;20535;-68
2021/11/23 01:12:07;;;;;;;5.28;2.33;;;;;;;18.88;71.27;101490.41;5081548;28;20040;-68
2021/11/23 01:14:36;;;;;;;6.43;2.13;;;;;;;18.81;71.45;101496.69;5080548;28;20098;-68
2021/11/23 01:17:06;;;;;;;2.95;1.02;;;;;;;18.85;71.44;101493.09;5088234;28;20067;-68
2021/11/23 01:19:34;;;;;;;5.22;2.50;;;;;;;18.84;71.49;101493.97;5072548;28;20037;-68
2021/11/23 01:22:02;;;;;;;3.47;1.92;;;;;;;18.84;71.32;101483.28;5072934;28;20064;-68
2021/11/23 01:24:30;;;;;;;6.55;2.20;;;;;;;18.86;70.92;101484.16;5073385;28;20032;-68
2021/11/23 01:27:16;;;;;;;8.02;2.63;;;;;;;18.88;70.69;101487.72;5072657;28;20045;-68
2021/11/23 01:29:44;;;;;;;4.50;2.00;;;;;;;18.90;70.20;101485.03;5073111;28;20408;-68
2021/11/23 01:32:14;;;;;;;4.97;2.38;;;;;;;19.01;69.18;101486.72;5071628;28;20084;-68
2021/11/23 01:34:41;;;;;;;4.57;1.80;;;;;;;19.04;68.49;101492.03;5072793;28;20036;-68
2021/11/23 01:37:09;;;;;;;5.95;1.88;;;;;;;19.00;68.36;101476.94;5087975;28;20051;-68
2021/11/23 01:39:37;;;;;;;6.65;1.95;;;;;;;19.00;68.34;101484.94;5072239;28;20044;-68
2021/11/23 01:42:05;;;;;;;8.88;2.75;;;;;;;19.05;68.26;101474.22;5072389;28;20098;-68
2021/11/23 01:44:33;;;;;;;4.25;1.35;;;;;;;19.07;67.93;101493.81;5071093;28;20076;-68
2021/11/23 01:47:00;;;;;;;4.30;1.60;;;;;;;19.04;67.78;101500.06;5072601;28;20369;-68
2021/11/23 01:49:30;;;;;;;3.38;1.70;;;;;;;18.98;67.79;101502.81;5072356;28;20143;-68
2021/11/23 01:51:58;;;;;;;4.97;1.75;;;;;;;18.93;67.88;101493.91;5072497;28;20444;-68
2021/11/23 01:54:26;;;;;;;6.03;2.75;;;;;;;18.91;67.98;101498.38;5087936;28;20040;-68
2021/11/23 01:56:55;;;;;;;8.15;1.58;;;;;;;18.88;68.18;101501.09;5071332;28;20388;-68
2021/11/23 01:59:23;;;;;;;4.82;2.00;;;;;;;18.84;68.57;101490.44;5070632;28;20048;-68
2021/11/23 02:01:51;;;;;;;5.03;2.00;;;;;;;18.81;68.51;101507.38;5072462;28;20075;-68
2021/11/23 02:04:18;;;;;;;5.80;1.80;;;;;;;18.78;68.74;101493.13;5071205;28;20086;-68
2021/11/23 02:07:08;;;;;;;5.68;2.05;;;;;;;18.77;68.73;101496.72;5081264;28;20041;-68
2021/11/23 02:09:36;;;;;;;4.30;1.55;;;;;;;18.73;68.78;101493.16;5072094;28;20465;-68
2021/11/23 02:12:04;;;;;;;6.75;2.10;;;;;;;18.73;68.64;101493.16;5087527;28;20123;-68
2021/11/23 02:14:33;;;;;;;2.70;1.85;;;;;;;18.72;68.40;101488.72;5071601;28;20052;-68
2021/11/23 02:17:00;;;;;;;5.75;2.10;;;;;;;18.74;68.29;101486.91;5088053;28;20040;-68
2021/11/23 02:19:28;;;;;;;5.95;1.85;;;;;;;18.74;68.02;101478.00;5072033;28;20074;-68
2021/11/23 02:21:57;;;;;;;4.47;1.83;;;;;;;18.75;67.80;101483.34;5073754;28;20094;-68
2021/11/23 02:24:25;;;;;;;5.38;1.60;;;;;;;18.76;67.53;101478.91;5070356;28;20045;-68
2021/11/23 02:26:53;;;;;;;4.65;1.65;;;;;;;18.75;67.73;101479.78;5070323;28;20461;-68
2021/11/23 02:29:21;;;;;;;5.07;1.65;;;;;;;18.74;68.02;101480.69;5071699;28;20037;-68
2021/11/23 02:31:49;;;;;;;6.00;1.77;;;;;;;18.75;67.94;101478.00;5071836;28;20040;-69
2021/11/23 02:34:16;;;;;;;7.75;2.47;;;;;;;18.78;67.79;101483.31;5070606;28;20399;-67
2021/11/23 02:36:44;;;;;;;3.05;1.48;;;;;;;18.83;67.69;101486.88;5076356;28;20045;-68
2021/11/23 02:39:13;;;;;;;5.88;2.00;;;;;;;18.86;67.72;101481.47;5071747;28;20495;-68
2021/11/23 02:41:41;;;;;;;6.07;2.05;;;;;;;18.86;68.06;101484.16;5071761;28;20093;-68
2021/11/23 02:44:09;;;;;;;3.45;1.95;;;;;;;18.85;68.32;101481.47;5071502;28;20040;-68
2021/11/23 02:46:36;;;;;;;9.05;2.45;;;;;;;18.83;68.21;101481.53;5071463;28;20041;-67
2021/11/23 02:49:04;;;;;;;5.43;2.75;;;;;;;18.83;68.59;101478.84;5071755;28;20096;-68
2021/11/23 02:51:34;;;;;;;4.78;1.70;;;;;;;18.83;68.61;101478.84;5087723;28;20060;-67
2021/11/23 02:54:19;;;;;;;3.42;1.88;;;;;;;18.82;68.76;101471.72;5067055;28;20071;-69
2021/11/23 02:56:47;;;;;;;7.80;1.95;;;;;;;18.83;68.72;101469.94;5080242;28;20047;-68
2021/11/23 02:59:15;;;;;;;3.80;2.13;;;;;;;18.85;68.74;101479.69;5086223;28;20043;-68
2021/11/23 03:01:43;;;;;;;4.35;1.85;;;;;;;18.89;68.26;101488.63;5071672;28;20052;-68
2021/11/23 03:04:10;;;;;;;10.45;2.10;;;;;;;18.91;68.13;101484.13;5071524;28;20036;-68
2021/11/23 03:06:39;;;;;;;5.10;1.90;;;;;;;18.94;68.04;101489.47;5070122;28;20055;-68
2021/11/23 03:09:09;;;;;;;5.07;2.42;;;;;;;18.96;68.00;101479.66;5071488;28;20098;-68
2021/11/23 03:11:39;;;;;;;4.63;1.75;;;;;;;18.97;67.81;101486.78;5088690;28;20036;-68
2021/11/23 03:14:06;;;;;;;5.18;2.20;;;;;;;18.97;67.87;101481.44;5086463;28;20106;-67
2021/11/23 03:16:34;;;;;;;7.88;2.40;;;;;;;19.01;67.82;101476.03;5086768;28;20158;-68
2021/11/23 03:19:02;;;;;;;4.47;1.88;;;;;;;19.03;67.76;101487.59;5086840;28;20094;-69
2021/11/23 03:21:32;;;;;;;5.43;2.08;;;;;;;19.04;67.70;101483.13;5071640;28;20435;-68
2021/11/23 03:24:17;;;;;;;4.00;1.80;;;;;;;19.03;67.60;101489.41;5069254;28;20036;-68
2021/11/23 03:26:46;;;;;;;4.90;2.28;;;;;;;19.05;67.55;101495.63;5070827;28;20048;-68
2021/11/23 03:29:15;;;;;;;4.60;2.45;;;;;;;19.04;67.50;101494.72;5071200;28;20033;-67
2021/11/23 03:31:43;;;;;;;5.72;1.67;;;;;;;19.03;67.49;101505.47;5069798;28;20373;-68
2021/11/23 03:34:11;;;;;;;2.60;1.52;;;;;;;19.04;67.53;101508.09;5070894;28;20076;-68
2021/11/23 03:36:40;;;;;;;8.35;1.85;;;;;;;19.06;67.53;101505.44;5071261;28;20503;-68
2021/11/23 03:39:08;;;;;;;7.30;2.22;;;;;;;19.07;67.66;101501.84;5071491;28;20135;-67
2021/11/23 03:41:39;;;;;;;6.78;2.45;;;;;;;19.07;67.54;101502.75;5070758;28;20052;-67
2021/11/23 03:44:10;;;;;;;6.15;2.88;;;;;;;19.15;67.61;101508.03;5071166;28;20060;-69
2021/11/23 03:46:39;;;;;;;9.43;2.47;;;;;;;19.18;67.36;101505.31;5071123;28;20064;-68
2021/11/23 03:49:07;;;;;;;6.07;2.20;;;;;;;19.23;67.22;101497.28;5069568;28;20040;-69
2021/11/23 03:51:34;;;;;;;6.07;2.00;;;;;;;19.22;67.31;101503.53;5086632;28;20041;-68
2021/11/23 03:54:02;;;;;;;6.28;2.00;;;;;;;19.26;67.55;101502.59;5073556;28;20048;-69
2021/11/23 03:56:30;;;;;;;3.05;1.85;;;;;;;19.23;67.68;101497.28;5071340;28;20507;-68
2021/11/23 03:58:57;;;;;;;6.50;2.17;;;;;;;19.23;67.81;101503.50;5070892;28;20480;-69
2021/11/23 04:01:27;;;;;;;3.20;1.92;;;;;;;19.24;67.66;101505.28;5069653;28;20048;-68
2021/11/23 04:03:55;;;;;;;6.10;1.83;;;;;;;19.23;67.83;101499.97;5069597;28;20051;-69
2021/11/23 04:06:23;;;;;;;6.30;1.98;;;;;;;19.23;67.71;101497.28;5086395;28;20048;-69
2021/11/23 04:08:50;;;;;;;3.40;1.52;;;;;;;19.24;68.19;101491.00;5090486;28;20483;-69
2021/11/23 04:11:19;;;;;;;4.72;2.30;;;;;;;19.28;68.16;101495.44;5072504;28;20048;-68
2021/11/23 04:13:46;;;;;;;6.97;2.15;;;;;;;19.27;67.83;101499.03;5074515;28;20047;-68
2021/11/23 04:16:16;;;;;;;6.20;1.80;;;;;;;19.25;68.15;101500.81;5074251;28;20070;-68
2021/11/23 04:18:46;;;;;;;3.53;1.80;;;;;;;19.28;68.04;101509.72;5074217;28;20055;-69
2021/11/23 04:21:14;;;;;;;4.45;1.75;;;;;;;19.29;68.27;101502.59;5074330;28;20506;-68
2021/11/23 04:23:42;;;;;;;5.68;2.50;;;;;;;19.30;68.20;101494.50;5091042;28;20044;-69
2021/11/23 04:26:10;;;;;;;6.65;2.00;;;;;;;19.30;68.41;101502.53;5073932;28;20040;-68
2021/11/23 04:28:37;;;;;;;4.45;1.98;;;;;;;19.31;68.31;101498.97;5056350;28;20052;-68
2021/11/23 04:31:06;;;;;;;7.60;2.33;;;;;;;19.32;68.32;101503.44;5074262;28;20064;-69
2021/11/23 04:33:34;;;;;;;5.32;2.15;;;;;;;19.30;68.35;101505.22;5074929;28;20074;-69
2021/11/23 04:36:13;;;;;;;3.53;2.03;;;;;;;19.29;69.05;101506.16;5072234;28;20409;-68
2021/11/23 04:38:41;;;;;;;6.57;1.90;;;;;;;19.21;69.73;101504.44;5072711;28;20048;-69
2021/11/23 04:41:09;;;;;;;5.82;2.10;;;;;;;19.15;70.13;101509.84;5089236;28;20044;-69
2021/11/23 04:43:37;;;;;;;4.30;1.45;;;;;;;19.10;70.28;101518.75;5089026;28;20036;-68
2021/11/23 04:46:04;;;;;;;5.13;2.78;;;;;;;19.07;70.42;101518.81;5073743;28;20033;-68
2021/11/23 04:48:32;;;;;;;2.83;1.90;;;;;;;19.07;70.39;101515.25;5073863;28;20048;-69
2021/11/23 04:51:01;;;;;;;4.45;2.08;;;;;;;19.05;70.38;101517.03;5089798;28;20037;-69
2021/11/23 04:53:30;;;;;;;8.13;2.72;;;;;;;19.07;70.42;101509.88;5072568;28;20522;-69
2021/11/23 04:55:57;;;;;;;6.35;1.95;;;;;;;19.07;70.30;101518.81;5077799;28;20435;-68
2021/11/23 04:58:25;;;;;;;7.00;2.60;;;;;;;19.06;70.50;101525.06;5073556;28;20105;-69
2021/11/23 05:00:53;;;;;;;7.28;1.92;;;;;;;19.07;70.44;101524.16;5073514;28;20041;-69
2021/11/23 05:03:21;;;;;;;3.70;1.83;;;;;;;19.07;70.42;101524.16;5088684;28;20067;-68
2021/11/23 05:05:49;;;;;;;4.15;2.45;;;;;;;19.07;70.51;101510.78;5089059;28;20534;-68
2021/11/23 05:08:18;;;;;;;7.72;2.05;;;;;;;19.11;69.83;101514.31;5089261;28;20457;-67
2021/11/23 05:10:47;;;;;;;3.65;2.28;;;;;;;19.20;69.07;101510.69;5090841;28;20110;-69
2021/11/23 05:13:18;;;;;;;3.40;1.65;;;;;;;19.28;69.05;101523.13;5073459;28;20439;-68
2021/11/23 05:15:45;;;;;;;2.72;1.42;;;;;;;19.33;68.72;101531.09;5073356;28;20102;-69
2021/11/23 05:18:13;;;;;;;3.95;1.95;;;;;;;19.35;68.71;101532.88;5088452;28;20090;-68
2021/11/23 05:20:41;;;;;;;5.55;2.10;;;;;;;19.29;68.96;101532.94;5073003;28;20058;-69
2021/11/23 05:23:08;;;;;;;4.55;1.95;;;;;;;19.24;69.32;101529.38;5087775;28;20094;-68
2021/11/23 05:25:36;;;;;;;3.75;1.65;;;;;;;19.18;69.90;101536.56;5071428;28;20047;-69
2021/11/23 05:28:07;;;;;;;3.60;1.80;;;;;;;19.14;70.13;101533.03;5071662;28;20036;-68
2021/11/23 05:30:35;;;;;;;4.07;2.03;;;;;;;19.10;70.65;101523.22;5073151;28;20040;-69
2021/11/23 05:33:03;;;;;;;5.18;2.17;;;;;;;19.11;70.90;101522.34;5071669;28;20040;-69
2021/11/23 05:35:33;;;;;;;6.65;2.08;;;;;;;19.11;71.13;101523.22;5088858;28;20112;-69
2021/11/23 05:38:18;;;;;;;4.32;2.00;;;;;;;19.14;71.44;101529.47;5070400;28;20047;-68
2021/11/23 05:40:46;;;;;;;5.28;1.92;;;;;;;19.15;71.57;101525.91;5072612;28;20044;-68
2021/11/23 05:43:15;;;;;;;7.70;3.00;;;;;;;19.18;71.81;101525.84;5072494;28;20040;-68
2021/11/23 05:45:44;;;;;;;7.55;3.42;;;;;;;19.17;71.68;101524.97;5054656;28;20041;-68
2021/11/23 05:48:12;;;;;;;5.82;3.10;;;;;;;19.18;71.97;101531.22;5088313;28;20040;-68
2021/11/23 05:50:40;;;;;;;5.82;3.10;;;;;;;19.20;72.06;101530.31;5088179;28;20090;-68
2021/11/23 05:53:28;;;;;;;7.75;2.97;;;;;;;19.19;72.04;101539.22;5083242;28;20044;-69
2021/11/23 05:55:55;;;;;;;8.77;2.40;;;;;;;19.22;72.23;101533.88;5072304;28;20051;-68
2021/11/23 05:58:25;;;;;;;4.35;2.13;;;;;;;19.25;72.09;101536.50;5088232;28;20048;-68
2021/11/23 06:00:52;;;;;;;5.03;2.92;;;;;;;19.27;71.96;101549.91;5074810;28;20401;-68
2021/11/23 06:03:21;;;;;;;9.27;2.47;;;;;;;19.29;71.99;101538.28;5087627;28;20040;-69
2021/11/23 06:05:49;;;;;;;5.05;2.10;;;;;;;19.33;71.67;101533.78;5072265;28;20067;-67
2021/11/23 06:08:16;;;;;;;4.85;2.00;;;;;;;19.36;71.47;101539.13;5072176;28;20052;-69
2021/11/23 06:10:44;;;;;;;5.68;2.47;;;;;;;19.39;70.97;101552.47;5072179;28;20044;-68
2021/11/23 06:13:34;;;;;;;5.43;2.75;;;;;;;19.42;70.64;101542.63;5054588;28;20044;-69
2021/11/23 06:16:02;;;;;;;5.03;2.25;;;;;;;19.42;70.71;101549.78;5070390;28;20044;-70
2021/11/23 06:18:30;;;;;;;6.47;2.55;;;;;;;19.44;70.29;101540.81;5072310;28;20040;-68
2021/11/23 06:20:58;;;;;;;5.00;2.65;;;;;;;19.44;69.93;101547.97;5070401;28;20086;-67
2021/11/23 06:23:26;;;;;;;5.18;2.20;;;;;;;19.46;69.88;101538.16;5071921;28;20040;-69
2021/11/23 06:25:57;;;;;;;6.30;2.53;;;;;;;19.45;70.26;101549.75;5071596;28;20128;-68
2021/11/23 06:28:26;;;;;;;5.22;2.55;;;;;;;19.44;70.53;101546.16;5074333;28;20056;-68
2021/11/23 06:30:56;;;;;;;5.63;2.50;;;;;;;19.44;70.62;101546.16;5071774;28;20553;-68
2021/11/23 06:33:24;;;;;;;4.25;2.47;;;;;;;19.45;70.92;101549.75;5070249;28;20049;-68
2021/11/23 06:35:52;;;;;;;4.30;1.95;;;;;;;19.48;70.89;101552.44;5071622;28;20037;-68
2021/11/23 06:38:19;;;;;;;5.35;2.65;;;;;;;19.50;70.92;101546.16;5088254;28;20044;-68
2021/11/23 06:40:48;;;;;;;3.95;2.13;;;;;;;19.53;70.47;101547.03;5069957;28;20041;-68
2021/11/23 06:43:16;;;;;;;3.53;1.80;;;;;;;19.54;70.49;101556.84;5071383;28;20040;-68
2021/11/23 06:45:44;;;;;;;4.85;1.90;;;;;;;19.54;70.43;101551.50;5070233;28;20037;-68
2021/11/23 06:48:13;;;;;;;3.45;2.03;;;;;;;19.58;70.59;101555.91;5076272;28;20090;-68
2021/11/23 06:50:42;;;;;;;5.93;1.77;;;;;;;19.58;70.96;101564.84;5070336;28;20060;-69
2021/11/23 06:53:11;;;;;;;6.63;2.40;;;;;;;19.61;71.15;101564.84;5071632;28;20047;-69
2021/11/23 06:55:40;;;;;;;6.30;2.30;;;;;;;19.67;70.56;101555.84;5087037;28;20519;-68
2021/11/23 06:58:08;;;;;;;7.55;2.72;;;;;;;19.75;69.85;101554.88;5071484;28;20086;-68
2021/11/23 07:00:35;;;;;;;5.88;2.40;;;;;;;19.83;69.58;101565.50;5071410;28;20529;-68
2021/11/23 07:03:03;;;;;;;5.88;2.60;;;;;;;19.89;69.24;101568.13;5086790;28;20545;-69
2021/11/23 07:05:33;;;;;;;7.38;2.75;;;;;;;19.95;69.35;101572.56;5071795;28;20059;-68
2021/11/23 07:08:00;;;;;;;6.15;2.38;;;;;;;19.96;69.16;101569.84;5087081;28;20127;-69
2021/11/23 07:10:28;;;;;;;4.53;2.15;;;;;;;19.97;69.25;101568.94;5071501;28;20041;-69
2021/11/23 07:12:57;;;;;;;8.52;2.70;;;;;;;19.99;69.18;101563.56;5071488;28;20040;-69
2021/11/23 07:15:24;;;;;;;4.90;2.80;;;;;;;20.04;69.19;101567.97;5071390;28;20094;-68
2021/11/23 07:17:52;;;;;;;3.80;1.75;;;;;;;20.11;69.34;101574.16;5070996;28;20036;-69
2021/11/23 07:20:20;;;;;;;6.32;2.38;;;;;;;20.18;69.46;101552.63;5069840;28;20036;-69
2021/11/23 07:22:49;;;;;;;5.68;2.22;;;;;;;20.27;69.39;101567.75;5086436;28;20496;-69
2021/11/23 07:25:17;;;;;;;5.38;2.70;;;;;;;20.32;69.58;101560.53;5086530;28;20484;-70
2021/11/23 07:27:45;;;;;;;7.03;3.58;;;;;;;20.39;69.60;101573.00;5071315;28;20032;-69
2021/11/23 07:30:33;;;;;;;12.93;3.20;;;;;;;20.51;69.72;101571.94;5079494;28;20048;-69
2021/11/23 07:33:01;;;;;;;8.50;2.60;;;;;;;20.64;69.54;101570.91;5071593;28;20041;-70
2021/11/23 07:35:29;;;;;;;3.38;1.98;;;;;;;20.77;69.55;101571.63;5070863;28;20554;-69
2021/11/23 07:37:59;;;;;;;5.75;2.20;;;;;;;20.93;68.91;101573.19;5069682;28;20071;-69
2021/11/23 07:40:27;;;;;;;5.38;2.80;;;;;;;21.09;68.26;101577.44;5069876;28;20047;-70
2021/11/23 07:42:55;;;;;;;6.60;3.22;;;;;;;21.33;67.74;101571.69;5086645;28;20054;-70
2021/11/23 07:45:24;;;;;;;4.28;2.15;;;;;;;21.66;66.80;101566.72;5070163;28;20082;-69
2021/11/23 07:47:52;;;;;;;8.35;2.83;;;;;;;21.99;65.04;101570.66;5075073;28;20381;-69
2021/11/23 07:50:19;;;;;;;6.55;2.28;;;;;;;22.19;63.98;101563.06;5079556;28;20079;-69
2021/11/23 07:52:47;;;;;;;6.25;2.15;;;;;;;22.25;63.04;101562.97;5074953;28;20075;-69
2021/11/23 07:55:16;;;;;;;7.18;2.47;;;;;;;22.29;62.78;101572.75;5073421;28;20403;-69
2021/11/23 07:57:44;;;;;;;6.20;2.35;;;;;;;22.35;62.46;101561.84;5074203;28;20143;-69
2021/11/23 08:00:15;;;;;;;4.75;2.35;;;;;;;22.34;61.94;101565.47;5090083;28;20400;-68
2021/11/23 08:02:43;;;;;;;4.57;2.40;;;;;;;22.23;61.97;101568.38;5074785;28;20048;-69
2021/11/23 08:05:11;;;;;;;7.10;2.38;;;;;;;22.12;61.75;101564.97;5090845;28;20074;-69
2021/11/23 08:07:38;;;;;;;5.22;2.25;;;;;;;22.04;61.82;101561.56;5074420;28;20040;-69
2021/11/23 08:10:06;;;;;;;4.75;2.50;;;;;;;21.96;62.30;101560.81;5074465;28;20124;-68
2021/11/23 08:12:37;;;;;;;6.38;3.00;;;;;;;21.94;62.18;101550.97;5074686;28;20115;-70
2021/11/23 08:15:05;;;;;;;6.88;2.85;;;;;;;21.90;62.58;101554.63;5078817;28;20665;-71
2021/11/23 08:17:33;;;;;;;10.07;2.28;;;;;;;21.94;62.79;101559.91;5073360;28;20379;-71
2021/11/23 08:20:01;;;;;;;6.47;2.20;;;;;;;22.01;62.72;101544.59;5083075;28;20036;-69
2021/11/23 08:22:28;;;;;;;5.25;2.50;;;;;;;22.00;62.44;101541.00;5073100;28;20060;-70
2021/11/23 08:24:56;;;;;;;5.63;2.53;;;;;;;21.98;62.72;101550.94;5089750;28;20120;-69
2021/11/23 08:27:24;;;;;;;6.40;2.40;;;;;;;21.95;62.52;101548.25;5074255;28;20102;-69
2021/11/23 08:29:53;;;;;;;6.03;2.40;;;;;;;21.90;62.66;101543.88;5074120;28;20092;-69
2021/11/23 08:32:21;;;;;;;6.13;2.58;;;;;;;21.83;63.09;101540.41;5074329;28;20127;-69
2021/11/23 08:34:49;;;;;;;7.35;2.80;;;;;;;21.78;62.99;101534.25;5074277;28;20056;-70
2021/11/23 08:37:16;;;;;;;8.82;3.08;;;;;;;21.72;63.02;101555.84;5073982;28;20480;-70
2021/11/23 08:39:44;;;;;;;5.80;2.83;;;;;;;21.66;63.02;101555.97;5073903;28;20045;-68
2021/11/23 08:42:12;;;;;;;6.18;2.97;;;;;;;21.67;63.40;101546.97;5089648;28;20556;-70
2021/11/23 08:44:39;;;;;;;5.40;2.42;;;;;;;21.66;63.55;101550.59;5075509;28;20054;-69
2021/11/23 08:47:20;;;;;;;7.25;2.67;;;;;;;21.69;63.82;101540.66;5073876;28;20560;-69
2021/11/23 08:49:49;;;;;;;8.93;3.35;;;;;;;21.71;63.75;101546.91;5072232;28;20040;-69
2021/11/23 08:52:17;;;;;;;7.07;2.90;;;;;;;21.73;63.81;101542.38;5073590;28;20082;-69
2021/11/23 08:54:45;;;;;;;7.97;3.50;;;;;;;21.77;63.49;101536.03;5073571;28;20064;-69
2021/11/23 08:57:13;;;;;;;10.75;2.95;;;;;;;21.93;63.86;101541.13;5073085;28;20040;-69
2021/11/23 08:59:43;;;;;;;7.55;3.42;;;;;;;22.20;63.00;101538.81;5073506;28;20037;-69
2021/11/23 09:02:13;;;;;;;8.80;3.45;;;;;;;22.45;62.49;101543.72;5073479;28;20037;-70
2021/11/23 09:04:43;;;;;;;7.82;3.53;;;;;;;22.69;61.65;101524.34;5089029;28;20036;-68
2021/11/23 09:07:31;;;;;;;7.70;3.65;;;;;;;22.71;61.05;101533.25;5083511;28;20036;-69
2021/11/23 09:09:59;;;;;;;8.73;4.70;;;;;;;22.65;60.52;101523.50;5072286;28;20102;-69
2021/11/23 09:12:27;;;;;;;10.02;4.80;;;;;;;22.53;60.40;101520.22;5075839;28;20041;-68
2021/11/23 09:14:54;;;;;;;7.25;2.78;;;;;;;22.43;60.77;101515.94;5089072;28;20048;-68
2021/11/23 09:17:23;;;;;;;8.55;2.80;;;;;;;22.38;60.83;101515.16;5075663;28;20036;-68
2021/11/23 09:19:52;;;;;;;6.45;3.22;;;;;;;22.36;60.95;101514.31;5071549;28;20495;-68
2021/11/23 09:22:20;;;;;;;6.75;2.78;;;;;;;22.32;61.20;101512.63;5055232;28;20044;-69
2021/11/23 09:24:48;;;;;;;7.97;2.90;;;;;;;22.34;61.04;101505.38;5088465;28;20064;-70
2021/11/23 09:27:15;;;;;;;5.40;2.60;;;;;;;22.36;61.04;101508.94;5074229;28;20115;-69
2021/11/23 09:29:43;;;;;;;8.57;2.65;;;;;;;22.41;61.04;101507.00;5072938;28;20127;-68
2021/11/23 09:32:13;;;;;;;6.68;2.95;;;;;;;22.43;60.93;101495.31;5072554;28;20048;-68
2021/11/23 09:34:41;;;;;;;6.55;2.20;;;;;;;22.44;60.51;101496.19;5072604;28;20439;-69
2021/11/23 09:37:10;;;;;;;6.15;2.78;;;;;;;22.45;60.06;101495.28;5071438;28;20058;-70
2021/11/23 09:39:38;;;;;;;5.00;2.28;;;;;;;22.48;59.99;101497.91;5071399;28;20094;-69
2021/11/23 09:42:06;;;;;;;6.30;2.15;;;;;;;22.53;60.05;101487.91;5072178;28;20040;-70
2021/11/23 09:44:34;;;;;;;3.70;1.90;;;;;;;22.57;59.35;101478.88;5072445;28;20119;-67
2021/11/23 09:47:02;;;;;;;8.50;2.92;;;;;;;22.65;58.85;101479.56;5073107;28;20040;-69
2021/11/23 09:49:31;;;;;;;6.35;3.05;;;;;;;22.72;58.35;101489.25;5071353;28;20044;-68
2021/11/23 09:51:59;;;;;;;5.63;2.17;;;;;;;22.80;57.25;101471.16;5092142;28;20090;-68
2021/11/23 09:54:28;;;;;;;7.30;4.15;;;;;;;22.90;56.57;101470.03;5072459;28;20119;-69
2021/11/23 09:56:56;;;;;;;9.55;2.63;;;;;;;23.00;56.85;101465.31;5072402;28;20048;-68
2021/11/23 09:59:24;;;;;;;4.75;2.33;;;;;;;23.18;55.99;101456.75;5072475;28;20040;-68
2021/11/23 10:01:55;;;;;;;14.20;6.65;;;;;;;23.30;55.20;101477.16;5072429;28;20078;-69
2021/11/23 10:04:25;;;;;;;9.57;5.07;;;;;;;23.42;54.84;101447.19;5072411;28;20492;-68
2021/11/23 10:06:55;;;;;;;5.63;2.30;;;;;;;23.56;54.68;101455.81;5071127;28;20045;-69
2021/11/23 10:09:35;;;;;;;7.22;2.10;;;;;;;23.74;54.05;101449.91;5087283;28;20049;-69
2021/11/23 10:12:17;;;;;;;5.65;2.85;;;;;;;23.92;53.39;101447.63;5072484;28;20032;-70
2021/11/23 10:15:09;;;;;;;8.02;2.13;;;;;;;24.05;52.88;101430.16;5070244;28;20049;-68
2021/11/23 10:17:38;;;;;;;3.53;1.85;;;;;;;24.06;52.24;101440.91;5071759;28;20507;-68
2021/11/23 10:20:23;;;;;;;8.02;3.40;;;;;;;23.97;52.04;101433.06;5087477;28;20116;-68
2021/11/23 10:22:51;;;;;;;3.83;1.83;;;;;;;23.94;51.90;101421.50;5087361;28;20079;-69
2021/11/23 10:25:20;;;;;;;17.20;2.42;;;;;;;23.87;51.87;101423.47;5071766;28;20040;-68
2021/11/23 10:27:48;;;;;;;4.32;2.30;;;;;;;23.75;51.85;101415.75;5090977;28;20047;-69
2021/11/23 10:30:19;;;;;;;6.68;2.97;;;;;;;23.63;52.29;101434.97;5071833;28;20041;-68
2021/11/23 10:32:49;;;;;;;4.53;2.20;;;;;;;23.50;52.01;101410.13;5070082;28;20052;-68
2021/11/23 10:35:19;;;;;;;4.22;2.50;;;;;;;23.41;52.25;101413.94;5071792;28;20063;-68
2021/11/23 10:37:48;;;;;;;9.95;2.58;;;;;;;23.41;52.25;101391.50;5071652;28;20158;-68
2021/11/23 10:40:38;;;;;;;8.70;3.30;;;;;;;23.55;52.62;101429.78;5067536;28;20071;-68
2021/11/23 10:43:11;;;;;;;5.65;2.35;;;;;;;23.59;52.21;101417.97;5087463;28;20119;-68
2021/11/23 10:45:40;;;;;;;6.65;2.30;;;;;;;23.64;52.00;101394.47;5087271;28;20532;-68
2021/11/23 10:48:11;;;;;;;6.45;2.80;;;;;;;23.68;51.35;101423.13;5087172;28;20048;-68
2021/11/23 10:50:41;;;;;;;8.57;5.25;;;;;;;23.77;52.58;101425.53;5071571;28;20506;-69
2021/11/23 10:53:12;;;;;;;6.50;2.75;;;;;;;23.84;52.67;101404.69;5053864;28;20353;-69
2021/11/23 10:55:44;;;;;;;6.97;1.92;;;;;;;23.99;51.66;101408.75;5071173;28;20037;-70
2021/11/23 10:58:14;;;;;;;6.88;2.55;;;;;;;24.08;50.54;101385.09;5069792;28;20063;-70
2021/11/23 11:00:44;;;;;;;5.18;2.10;;;;;;;24.12;50.83;101408.34;5070030;28;20095;-68
2021/11/23 11:03:12;;;;;;;6.35;2.40;;;;;;;24.03;50.63;101405.03;5071254;28;20391;-68
2021/11/23 11:05:42;;;;;;;4.05;2.38;;;;;;;23.88;50.55;101408.19;5087015;28;20082;-68
2021/11/23 11:08:11;;;;;;;3.90;2.10;;;;;;;23.69;50.12;101411.41;5087040;28;20037;-68
2021/11/23 11:11:00;;;;;;;7.20;4.22;;;;;;;23.47;50.40;101402.16;5068612;28;20063;-70
2021/11/23 11:13:29;;;;;;;7.80;2.63;;;;;;;23.39;51.16;101391.53;5071341;28;20124;-69
2021/11/23 11:15:58;;;;;;;4.75;1.80;;;;;;;23.50;51.01;101393.97;5086904;28;20099;-69
2021/11/23 11:18:26;;;;;;;8.45;2.53;;;;;;;23.52;49.95;101389.41;5071273;28;20048;-68
2021/11/23 11:20:59;;;;;;;3.90;2.20;;;;;;;23.43;49.58;101371.63;5072705;28;20045;-69
2021/11/23 11:23:29;;;;;;;4.18;2.08;;;;;;;23.36;50.24;101379.97;5095095;28;20093;-68
2021/11/23 11:26:10;;;;;;;6.18;2.65;;;;;;;23.32;50.06;101386.34;5073956;28;20072;-69
2021/11/23 11:28:40;;;;;;;5.50;2.85;;;;;;;23.30;50.14;101377.44;5073657;28;20059;-68
2021/11/23 11:31:08;;;;;;;8.80;2.40;;;;;;;23.37;49.97;101379.00;5090759;28;20154;-68
2021/11/23 11:33:38;;;;;;;5.78;2.75;;;;;;;23.39;50.08;101375.38;5074988;28;20045;-68
2021/11/23 11:36:07;;;;;;;8.23;1.90;;;;;;;23.37;50.32;101373.63;5074841;28;20057;-69